sensor_id;sensor_type;location;lat;lon;timestamp;P1;durP1;ratioP1;P2;durP2;ratioP2
6564;SDS011;3316;44.118;27.258;2022-07-22T00:01:51;10.05;;;4.35;;
6564;SDS011;3316;44.118;27.258;2022-07-22T00:04:17;7.50;;;5.03;;
6564;SDS011;3316;44.118;27.258;2022-07-22T00:06:42;7.55;;;5.18;;
6564;SDS011;3316;44.118;27.258;2022-07-22T00:09:08;10.00;;;5.33;;
6564;SDS011;3316;44.118;27.258;2022-07-22T00:11:34;8.17;;;4.77;;
6564;SDS011;3316;44.118;27.258;2022-07-22T00:14:00;8.50;;;5.03;;
6564;SDS011;3316;44.118;27.258;2022-07-22T00:16:25;7.40;;;4.93;;
6564;SDS011;3316;44.118;27.258;2022-07-22T00:18:50;7.90;;;5.07;;
6564;SDS011;3316;44.118;27.258;2022-07-22T00:21:16;8.00;;;5.57;;
6564;SDS011;3316;44.118;27.258;2022-07-22T00:23:42;9.60;;;4.97;;
6564;SDS011;3316;44.118;27.258;2022-07-22T00:26:07;8.77;;;5.15;;
6564;SDS011;3316;44.118;27.258;2022-07-22T00:28:33;10.70;;;5.07;;
6564;SDS011;3316;44.118;27.258;2022-07-22T00:30:58;8.30;;;4.47;;
6564;SDS011;3316;44.118;27.258;2022-07-22T00:33:24;8.57;;;5.13;;
6564;SDS011;3316;44.118;27.258;2022-07-22T00:35:49;7.00;;;4.97;;
6564;SDS011;3316;44.118;27.258;2022-07-22T00:38:15;9.00;;;4.60;;
6564;SDS011;3316;44.118;27.258;2022-07-22T00:40:40;8.53;;;5.27;;
6564;SDS011;3316;44.118;27.258;2022-07-22T00:43:06;8.00;;;4.90;;
6564;SDS011;3316;44.118;27.258;2022-07-22T00:45:32;7.00;;;4.60;;
6564;SDS011;3316;44.118;27.258;2022-07-22T00:47:57;5.90;;;4.63;;
6564;SDS011;3316;44.118;27.258;2022-07-22T00:50:23;8.97;;;4.97;;
6564;SDS011;3316;44.118;27.258;2022-07-22T00:52:49;10.00;;;4.90;;
6564;SDS011;3316;44.118;27.258;2022-07-22T00:55:14;9.57;;;5.33;;
6564;SDS011;3316;44.118;27.258;2022-07-22T00:57:41;10.87;;;5.60;;
6564;SDS011;3316;44.118;27.258;2022-07-22T01:00:08;10.03;;;5.37;;
6564;SDS011;3316;44.118;27.258;2022-07-22T01:02:38;11.37;;;5.97;;
6564;SDS011;3316;44.118;27.258;2022-07-22T01:05:04;8.90;;;5.40;;
6564;SDS011;3316;44.118;27.258;2022-07-22T01:07:30;8.13;;;5.50;;
6564;SDS011;3316;44.118;27.258;2022-07-22T01:09:56;11.17;;;5.50;;
6564;SDS011;3316;44.118;27.258;2022-07-22T01:12:22;14.20;;;5.27;;
6564;SDS011;3316;44.118;27.258;2022-07-22T01:14:48;8.50;;;5.33;;
6564;SDS011;3316;44.118;27.258;2022-07-22T01:17:13;11.77;;;5.70;;
6564;SDS011;3316;44.118;27.258;2022-07-22T01:19:39;8.50;;;5.17;;
6564;SDS011;3316;44.118;27.258;2022-07-22T01:22:05;7.57;;;4.80;;
6564;SDS011;3316;44.118;27.258;2022-07-22T01:24:31;7.70;;;5.63;;
6564;SDS011;3316;44.118;27.258;2022-07-22T01:26:57;10.77;;;5.17;;
6564;SDS011;3316;44.118;27.258;2022-07-22T01:29:23;10.83;;;5.73;;
6564;SDS011;3316;44.118;27.258;2022-07-22T01:31:48;8.23;;;5.60;;
6564;SDS011;3316;44.118;27.258;2022-07-22T01:34:14;9.50;;;5.53;;
6564;SDS011;3316;44.118;27.258;2022-07-22T01:36:39;10.77;;;6.87;;
6564;SDS011;3316;44.118;27.258;2022-07-22T01:39:05;12.33;;;6.00;;
6564;SDS011;3316;44.118;27.258;2022-07-22T01:41:31;9.02;;;6.53;;
6564;SDS011;3316;44.118;27.258;2022-07-22T01:43:56;11.73;;;7.80;;
6564;SDS011;3316;44.118;27.258;2022-07-22T01:46:22;11.80;;;8.13;;
6564;SDS011;3316;44.118;27.258;2022-07-22T01:48:49;11.37;;;8.70;;
6564;SDS011;3316;44.118;27.258;2022-07-22T01:51:15;10.37;;;8.60;;
6564;SDS011;3316;44.118;27.258;2022-07-22T01:53:40;9.00;;;8.03;;
6564;SDS011;3316;44.118;27.258;2022-07-22T01:56:06;13.90;;;9.60;;
6564;SDS011;3316;44.118;27.258;2022-07-22T01:58:32;12.47;;;8.30;;
6564;SDS011;3316;44.118;27.258;2022-07-22T02:00:57;14.93;;;8.27;;
6564;SDS011;3316;44.118;27.258;2022-07-22T02:03:23;13.93;;;8.40;;
6564;SDS011;3316;44.118;27.258;2022-07-22T02:05:48;12.60;;;7.53;;
6564;SDS011;3316;44.118;27.258;2022-07-22T02:08:14;12.00;;;8.20;;
6564;SDS011;3316;44.118;27.258;2022-07-22T02:10:40;13.50;;;7.67;;
6564;SDS011;3316;44.118;27.258;2022-07-22T02:13:05;14.33;;;7.40;;
6564;SDS011;3316;44.118;27.258;2022-07-22T02:15:31;11.30;;;8.20;;
6564;SDS011;3316;44.118;27.258;2022-07-22T02:17:56;11.23;;;7.73;;
6564;SDS011;3316;44.118;27.258;2022-07-22T02:20:22;11.70;;;7.77;;
6564;SDS011;3316;44.118;27.258;2022-07-22T02:22:47;15.03;;;8.20;;
6564;SDS011;3316;44.118;27.258;2022-07-22T02:25:13;15.60;;;8.33;;
6564;SDS011;3316;44.118;27.258;2022-07-22T02:27:39;10.47;;;7.70;;
6564;SDS011;3316;44.118;27.258;2022-07-22T02:30:06;13.73;;;7.77;;
6564;SDS011;3316;44.118;27.258;2022-07-22T02:32:33;13.27;;;8.03;;
6564;SDS011;3316;44.118;27.258;2022-07-22T02:34:58;12.90;;;8.27;;
6564;SDS011;3316;44.118;27.258;2022-07-22T02:37:24;9.87;;;7.93;;
6564;SDS011;3316;44.118;27.258;2022-07-22T02:39:50;12.37;;;8.10;;
6564;SDS011;3316;44.118;27.258;2022-07-22T02:42:15;11.60;;;7.20;;
6564;SDS011;3316;44.118;27.258;2022-07-22T02:44:41;12.07;;;7.20;;
6564;SDS011;3316;44.118;27.258;2022-07-22T02:47:06;13.10;;;7.90;;
6564;SDS011;3316;44.118;27.258;2022-07-22T02:49:32;11.20;;;7.23;;
6564;SDS011;3316;44.118;27.258;2022-07-22T02:51:58;14.27;;;7.50;;
6564;SDS011;3316;44.118;27.258;2022-07-22T02:54:24;16.30;;;7.90;;
6564;SDS011;3316;44.118;27.258;2022-07-22T02:56:49;13.97;;;7.63;;
6564;SDS011;3316;44.118;27.258;2022-07-22T02:59:15;16.47;;;8.30;;
6564;SDS011;3316;44.118;27.258;2022-07-22T03:01:40;15.50;;;7.97;;
6564;SDS011;3316;44.118;27.258;2022-07-22T03:04:06;16.10;;;7.77;;
6564;SDS011;3316;44.118;27.258;2022-07-22T03:06:31;14.73;;;7.80;;
6564;SDS011;3316;44.118;27.258;2022-07-22T03:08:57;12.17;;;7.50;;
6564;SDS011;3316;44.118;27.258;2022-07-22T03:11:22;13.70;;;7.77;;
6564;SDS011;3316;44.118;27.258;2022-07-22T03:13:48;19.63;;;7.20;;
6564;SDS011;3316;44.118;27.258;2022-07-22T03:16:13;16.93;;;7.07;;
6564;SDS011;3316;44.118;27.258;2022-07-22T03:18:39;24.07;;;8.40;;
6564;SDS011;3316;44.118;27.258;2022-07-22T03:21:04;24.20;;;13.00;;
6564;SDS011;3316;44.118;27.258;2022-07-22T03:23:30;22.70;;;12.77;;
6564;SDS011;3316;44.118;27.258;2022-07-22T03:25:55;24.07;;;16.50;;
6564;SDS011;3316;44.118;27.258;2022-07-22T03:28:21;25.33;;;12.27;;
6564;SDS011;3316;44.118;27.258;2022-07-22T03:30:47;13.35;;;11.65;;
6564;SDS011;3316;44.118;27.258;2022-07-22T03:33:12;16.17;;;8.55;;
6564;SDS011;3316;44.118;27.258;2022-07-22T03:35:38;18.77;;;7.97;;
6564;SDS011;3316;44.118;27.258;2022-07-22T03:38:03;13.82;;;7.55;;
6564;SDS011;3316;44.118;27.258;2022-07-22T03:40:29;16.48;;;7.15;;
6564;SDS011;3316;44.118;27.258;2022-07-22T03:42:54;13.85;;;7.82;;
6564;SDS011;3316;44.118;27.258;2022-07-22T03:45:20;20.13;;;7.75;;
6564;SDS011;3316;44.118;27.258;2022-07-22T03:47:45;15.57;;;7.70;;
6564;SDS011;3316;44.118;27.258;2022-07-22T03:50:11;15.98;;;8.25;;
6564;SDS011;3316;44.118;27.258;2022-07-22T03:52:36;17.77;;;8.05;;
6564;SDS011;3316;44.118;27.258;2022-07-22T03:55:02;14.57;;;7.22;;
6564;SDS011;3316;44.118;27.258;2022-07-22T03:57:29;19.52;;;7.95;;
6564;SDS011;3316;44.118;27.258;2022-07-22T03:59:54;19.42;;;7.35;;
6564;SDS011;3316;44.118;27.258;2022-07-22T04:02:20;15.93;;;8.40;;
6564;SDS011;3316;44.118;27.258;2022-07-22T04:04:45;22.73;;;7.97;;
6564;SDS011;3316;44.118;27.258;2022-07-22T04:07:11;26.85;;;8.05;;
6564;SDS011;3316;44.118;27.258;2022-07-22T04:09:36;16.15;;;6.40;;
6564;SDS011;3316;44.118;27.258;2022-07-22T04:12:02;20.83;;;7.15;;
6564;SDS011;3316;44.118;27.258;2022-07-22T04:14:27;24.98;;;7.88;;
6564;SDS011;3316;44.118;27.258;2022-07-22T04:16:53;18.40;;;6.95;;
6564;SDS011;3316;44.118;27.258;2022-07-22T04:19:18;27.52;;;8.32;;
6564;SDS011;3316;44.118;27.258;2022-07-22T04:21:44;23.05;;;8.30;;
6564;SDS011;3316;44.118;27.258;2022-07-22T04:24:09;23.02;;;7.03;;
6564;SDS011;3316;44.118;27.258;2022-07-22T04:26:35;19.80;;;7.75;;
6564;SDS011;3316;44.118;27.258;2022-07-22T04:29:01;17.88;;;7.72;;
6564;SDS011;3316;44.118;27.258;2022-07-22T04:31:27;19.95;;;8.00;;
6564;SDS011;3316;44.118;27.258;2022-07-22T04:33:53;24.38;;;6.95;;
6564;SDS011;3316;44.118;27.258;2022-07-22T04:36:18;49.78;;;25.48;;
6564;SDS011;3316;44.118;27.258;2022-07-22T04:38:44;16.50;;;7.28;;
6564;SDS011;3316;44.118;27.258;2022-07-22T04:41:09;25.17;;;10.50;;
6564;SDS011;3316;44.118;27.258;2022-07-22T04:43:35;32.47;;;14.52;;
6564;SDS011;3316;44.118;27.258;2022-07-22T04:46:00;38.38;;;16.17;;
6564;SDS011;3316;44.118;27.258;2022-07-22T04:48:26;76.85;;;31.15;;
6564;SDS011;3316;44.118;27.258;2022-07-22T04:50:51;78.47;;;34.30;;
6564;SDS011;3316;44.118;27.258;2022-07-22T04:53:17;42.55;;;21.35;;
6564;SDS011;3316;44.118;27.258;2022-07-22T04:55:42;35.10;;;14.95;;
6564;SDS011;3316;44.118;27.258;2022-07-22T04:58:07;69.50;;;33.45;;
6564;SDS011;3316;44.118;27.258;2022-07-22T05:00:33;32.25;;;14.43;;
6564;SDS011;3316;44.118;27.258;2022-07-22T05:02:59;10.43;;;5.13;;
6564;SDS011;3316;44.118;27.258;2022-07-22T05:05:24;18.88;;;9.25;;
6564;SDS011;3316;44.118;27.258;2022-07-22T05:07:50;20.75;;;11.57;;
6564;SDS011;3316;44.118;27.258;2022-07-22T05:10:15;13.93;;;6.07;;
6564;SDS011;3316;44.118;27.258;2022-07-22T05:12:41;9.57;;;4.43;;
6564;SDS011;3316;44.118;27.258;2022-07-22T05:15:08;11.43;;;4.60;;
6564;SDS011;3316;44.118;27.258;2022-07-22T05:17:33;9.93;;;4.43;;
6564;SDS011;3316;44.118;27.258;2022-07-22T05:20:01;6.95;;;4.65;;
6564;SDS011;3316;44.118;27.258;2022-07-22T05:22:27;7.57;;;4.53;;
6564;SDS011;3316;44.118;27.258;2022-07-22T05:24:53;7.32;;;3.83;;
6564;SDS011;3316;44.118;27.258;2022-07-22T05:27:18;9.18;;;3.88;;
6564;SDS011;3316;44.118;27.258;2022-07-22T05:29:44;10.75;;;4.18;;
6564;SDS011;3316;44.118;27.258;2022-07-22T05:32:09;8.57;;;3.50;;
6564;SDS011;3316;44.118;27.258;2022-07-22T05:34:35;9.07;;;3.80;;
6564;SDS011;3316;44.118;27.258;2022-07-22T05:37:01;22.13;;;10.85;;
6564;SDS011;3316;44.118;27.258;2022-07-22T05:39:26;10.52;;;4.85;;
6564;SDS011;3316;44.118;27.258;2022-07-22T05:41:52;7.88;;;3.70;;
6564;SDS011;3316;44.118;27.258;2022-07-22T05:44:17;11.35;;;4.40;;
6564;SDS011;3316;44.118;27.258;2022-07-22T05:46:43;11.93;;;3.85;;
6564;SDS011;3316;44.118;27.258;2022-07-22T05:49:08;9.48;;;3.90;;
6564;SDS011;3316;44.118;27.258;2022-07-22T05:51:34;9.75;;;3.95;;
6564;SDS011;3316;44.118;27.258;2022-07-22T05:53:59;9.40;;;3.88;;
6564;SDS011;3316;44.118;27.258;2022-07-22T05:56:27;9.18;;;3.30;;
6564;SDS011;3316;44.118;27.258;2022-07-22T05:58:52;11.68;;;3.80;;
6564;SDS011;3316;44.118;27.258;2022-07-22T06:01:18;9.05;;;3.40;;
6564;SDS011;3316;44.118;27.258;2022-07-22T06:03:43;13.05;;;3.95;;
6564;SDS011;3316;44.118;27.258;2022-07-22T06:06:09;7.72;;;3.88;;
6564;SDS011;3316;44.118;27.258;2022-07-22T06:08:35;18.55;;;3.70;;
6564;SDS011;3316;44.118;27.258;2022-07-22T06:11:01;7.38;;;3.47;;
6564;SDS011;3316;44.118;27.258;2022-07-22T06:13:27;6.50;;;3.40;;
6564;SDS011;3316;44.118;27.258;2022-07-22T06:15:53;8.98;;;3.70;;
6564;SDS011;3316;44.118;27.258;2022-07-22T06:18:19;5.85;;;3.72;;
6564;SDS011;3316;44.118;27.258;2022-07-22T06:20:44;7.32;;;3.33;;
6564;SDS011;3316;44.118;27.258;2022-07-22T06:23:10;17.85;;;3.88;;
6564;SDS011;3316;44.118;27.258;2022-07-22T06:25:35;7.43;;;3.42;;
6564;SDS011;3316;44.118;27.258;2022-07-22T06:28:01;8.80;;;3.45;;
6564;SDS011;3316;44.118;27.258;2022-07-22T06:30:27;12.75;;;3.00;;
6564;SDS011;3316;44.118;27.258;2022-07-22T06:32:52;9.88;;;3.38;;
6564;SDS011;3316;44.118;27.258;2022-07-22T06:35:18;20.80;;;4.75;;
6564;SDS011;3316;44.118;27.258;2022-07-22T06:37:43;9.68;;;3.20;;
6564;SDS011;3316;44.118;27.258;2022-07-22T06:40:09;15.10;;;5.72;;
6564;SDS011;3316;44.118;27.258;2022-07-22T06:42:35;10.55;;;3.22;;
6564;SDS011;3316;44.118;27.258;2022-07-22T06:45:01;14.15;;;3.35;;
6564;SDS011;3316;44.118;27.258;2022-07-22T06:47:26;16.05;;;5.68;;
6564;SDS011;3316;44.118;27.258;2022-07-22T06:49:52;11.18;;;3.50;;
6564;SDS011;3316;44.118;27.258;2022-07-22T06:52:17;7.20;;;2.85;;
6564;SDS011;3316;44.118;27.258;2022-07-22T06:54:42;8.05;;;3.28;;
6564;SDS011;3316;44.118;27.258;2022-07-22T06:57:08;10.18;;;2.97;;
6564;SDS011;3316;44.118;27.258;2022-07-22T06:59:33;13.77;;;4.63;;
6564;SDS011;3316;44.118;27.258;2022-07-22T07:01:59;15.23;;;3.20;;
6564;SDS011;3316;44.118;27.258;2022-07-22T07:04:25;18.85;;;4.30;;
6564;SDS011;3316;44.118;27.258;2022-07-22T07:06:50;13.05;;;4.35;;
6564;SDS011;3316;44.118;27.258;2022-07-22T07:09:15;10.07;;;3.80;;
6564;SDS011;3316;44.118;27.258;2022-07-22T07:11:41;14.32;;;3.70;;
6564;SDS011;3316;44.118;27.258;2022-07-22T07:14:06;15.68;;;4.00;;
6564;SDS011;3316;44.118;27.258;2022-07-22T07:16:32;13.32;;;4.05;;
6564;SDS011;3316;44.118;27.258;2022-07-22T07:18:57;12.52;;;3.92;;
6564;SDS011;3316;44.118;27.258;2022-07-22T07:21:23;15.48;;;6.55;;
6564;SDS011;3316;44.118;27.258;2022-07-22T07:23:48;21.88;;;5.47;;
6564;SDS011;3316;44.118;27.258;2022-07-22T07:26:15;17.48;;;8.40;;
6564;SDS011;3316;44.118;27.258;2022-07-22T07:28:40;9.80;;;3.42;;
6564;SDS011;3316;44.118;27.258;2022-07-22T07:31:06;9.98;;;3.38;;
6564;SDS011;3316;44.118;27.258;2022-07-22T07:33:31;8.75;;;3.47;;
6564;SDS011;3316;44.118;27.258;2022-07-22T07:35:57;8.90;;;2.70;;
6564;SDS011;3316;44.118;27.258;2022-07-22T07:38:22;8.52;;;3.47;;
6564;SDS011;3316;44.118;27.258;2022-07-22T07:40:48;13.63;;;4.05;;
6564;SDS011;3316;44.118;27.258;2022-07-22T07:43:13;7.88;;;3.50;;
6564;SDS011;3316;44.118;27.258;2022-07-22T07:45:39;5.07;;;2.53;;
6564;SDS011;3316;44.118;27.258;2022-07-22T07:48:04;5.88;;;2.35;;
6564;SDS011;3316;44.118;27.258;2022-07-22T07:50:31;6.25;;;2.47;;
6564;SDS011;3316;44.118;27.258;2022-07-22T07:52:57;6.82;;;3.03;;
6564;SDS011;3316;44.118;27.258;2022-07-22T07:55:22;6.38;;;2.72;;
6564;SDS011;3316;44.118;27.258;2022-07-22T07:57:48;9.18;;;2.53;;
6564;SDS011;3316;44.118;27.258;2022-07-22T08:00:15;6.18;;;2.28;;
6564;SDS011;3316;44.118;27.258;2022-07-22T08:02:42;6.90;;;2.85;;
6564;SDS011;3316;44.118;27.258;2022-07-22T08:05:08;6.53;;;2.20;;
6564;SDS011;3316;44.118;27.258;2022-07-22T08:07:34;12.52;;;4.75;;
6564;SDS011;3316;44.118;27.258;2022-07-22T08:10:00;8.43;;;4.20;;
6564;SDS011;3316;44.118;27.258;2022-07-22T08:12:26;6.28;;;3.70;;
6564;SDS011;3316;44.118;27.258;2022-07-22T08:14:51;6.30;;;2.70;;
6564;SDS011;3316;44.118;27.258;2022-07-22T08:17:17;5.35;;;2.50;;
6564;SDS011;3316;44.118;27.258;2022-07-22T08:19:42;5.90;;;2.53;;
6564;SDS011;3316;44.118;27.258;2022-07-22T08:22:08;10.02;;;4.65;;
6564;SDS011;3316;44.118;27.258;2022-07-22T08:24:33;6.28;;;2.95;;
6564;SDS011;3316;44.118;27.258;2022-07-22T08:26:59;15.73;;;4.55;;
6564;SDS011;3316;44.118;27.258;2022-07-22T08:29:25;5.53;;;2.38;;
6564;SDS011;3316;44.118;27.258;2022-07-22T08:31:50;5.43;;;2.70;;
6564;SDS011;3316;44.118;27.258;2022-07-22T08:34:16;6.22;;;2.90;;
6564;SDS011;3316;44.118;27.258;2022-07-22T08:36:41;6.45;;;2.38;;
6564;SDS011;3316;44.118;27.258;2022-07-22T08:39:07;2.55;;;1.85;;
6564;SDS011;3316;44.118;27.258;2022-07-22T08:41:36;14.40;;;5.65;;
6564;SDS011;3316;44.118;27.258;2022-07-22T08:44:04;3.65;;;2.80;;
6564;SDS011;3316;44.118;27.258;2022-07-22T08:46:30;7.43;;;4.45;;
6564;SDS011;3316;44.118;27.258;2022-07-22T08:48:56;10.43;;;5.32;;
6564;SDS011;3316;44.118;27.258;2022-07-22T08:51:21;10.23;;;3.83;;
6564;SDS011;3316;44.118;27.258;2022-07-22T08:53:47;4.35;;;1.83;;
6564;SDS011;3316;44.118;27.258;2022-07-22T08:56:13;16.90;;;5.10;;
6564;SDS011;3316;44.118;27.258;2022-07-22T08:58:39;9.50;;;2.60;;
6564;SDS011;3316;44.118;27.258;2022-07-22T09:01:06;5.30;;;2.72;;
6564;SDS011;3316;44.118;27.258;2022-07-22T09:03:35;5.20;;;1.95;;
6564;SDS011;3316;44.118;27.258;2022-07-22T09:06:13;10.68;;;2.85;;
6564;SDS011;3316;44.118;27.258;2022-07-22T09:11:22;40.28;;;17.08;;
6564;SDS011;3316;44.118;27.258;2022-07-22T09:13:49;3.22;;;2.28;;
6564;SDS011;3316;44.118;27.258;2022-07-22T09:16:15;10.05;;;4.07;;
6564;SDS011;3316;44.118;27.258;2022-07-22T09:18:49;6.05;;;2.85;;
6564;SDS011;3316;44.118;27.258;2022-07-22T09:21:16;5.10;;;2.78;;
6564;SDS011;3316;44.118;27.258;2022-07-22T09:23:42;10.02;;;3.80;;
6564;SDS011;3316;44.118;27.258;2022-07-22T09:26:08;10.48;;;5.93;;
6564;SDS011;3316;44.118;27.258;2022-07-22T09:28:38;5.75;;;2.97;;
6564;SDS011;3316;44.118;27.258;2022-07-22T09:31:25;3.05;;;2.10;;
6564;SDS011;3316;44.118;27.258;2022-07-22T09:33:59;5.22;;;1.90;;
6564;SDS011;3316;44.118;27.258;2022-07-22T09:36:25;5.80;;;3.17;;
6564;SDS011;3316;44.118;27.258;2022-07-22T09:38:51;12.27;;;6.13;;
6564;SDS011;3316;44.118;27.258;2022-07-22T09:41:17;4.18;;;1.95;;
6564;SDS011;3316;44.118;27.258;2022-07-22T09:43:43;3.78;;;1.95;;
6564;SDS011;3316;44.118;27.258;2022-07-22T09:46:09;5.65;;;2.40;;
6564;SDS011;3316;44.118;27.258;2022-07-22T09:48:35;9.05;;;2.22;;
6564;SDS011;3316;44.118;27.258;2022-07-22T09:51:02;3.58;;;1.90;;
6564;SDS011;3316;44.118;27.258;2022-07-22T09:53:28;9.50;;;2.42;;
6564;SDS011;3316;44.118;27.258;2022-07-22T09:55:58;9.63;;;2.25;;
6564;SDS011;3316;44.118;27.258;2022-07-22T09:58:25;7.25;;;2.35;;
6564;SDS011;3316;44.118;27.258;2022-07-22T10:00:52;5.25;;;2.00;;
6564;SDS011;3316;44.118;27.258;2022-07-22T10:03:29;8.45;;;2.03;;
6564;SDS011;3316;44.118;27.258;2022-07-22T10:05:57;6.30;;;2.05;;
6564;SDS011;3316;44.118;27.258;2022-07-22T10:08:24;4.90;;;1.98;;
6564;SDS011;3316;44.118;27.258;2022-07-22T10:10:51;3.35;;;2.60;;
6564;SDS011;3316;44.118;27.258;2022-07-22T10:13:17;6.65;;;2.20;;
6564;SDS011;3316;44.118;27.258;2022-07-22T10:15:44;8.07;;;2.38;;
6564;SDS011;3316;44.118;27.258;2022-07-22T10:18:14;4.47;;;1.98;;
6564;SDS011;3316;44.118;27.258;2022-07-22T10:20:41;6.40;;;2.90;;
6564;SDS011;3316;44.118;27.258;2022-07-22T10:23:07;3.97;;;2.30;;
6564;SDS011;3316;44.118;27.258;2022-07-22T10:25:53;5.30;;;2.17;;
6564;SDS011;3316;44.118;27.258;2022-07-22T10:28:27;4.88;;;2.25;;
6564;SDS011;3316;44.118;27.258;2022-07-22T10:31:16;4.82;;;1.90;;
6564;SDS011;3316;44.118;27.258;2022-07-22T10:33:50;5.38;;;2.10;;
6564;SDS011;3316;44.118;27.258;2022-07-22T10:36:34;3.47;;;1.90;;
6564;SDS011;3316;44.118;27.258;2022-07-22T10:39:08;2.83;;;2.00;;
6564;SDS011;3316;44.118;27.258;2022-07-22T10:41:37;5.20;;;1.80;;
6564;SDS011;3316;44.118;27.258;2022-07-22T10:44:05;4.15;;;2.10;;
6564;SDS011;3316;44.118;27.258;2022-07-22T10:46:53;2.40;;;1.77;;
6564;SDS011;3316;44.118;27.258;2022-07-22T10:49:24;6.60;;;2.40;;
6564;SDS011;3316;44.118;27.258;2022-07-22T10:55:15;9.90;;;2.47;;
6564;SDS011;3316;44.118;27.258;2022-07-22T10:57:41;8.15;;;2.90;;
6564;SDS011;3316;44.118;27.258;2022-07-22T11:00:07;2.72;;;2.10;;
6564;SDS011;3316;44.118;27.258;2022-07-22T11:02:34;6.85;;;2.70;;
6564;SDS011;3316;44.118;27.258;2022-07-22T11:05:02;3.72;;;2.25;;
6564;SDS011;3316;44.118;27.258;2022-07-22T11:07:28;4.15;;;2.10;;
6564;SDS011;3316;44.118;27.258;2022-07-22T11:10:07;4.03;;;2.40;;
6564;SDS011;3316;44.118;27.258;2022-07-22T11:12:38;4.30;;;2.85;;
6564;SDS011;3316;44.118;27.258;2022-07-22T11:15:04;2.85;;;2.22;;
6564;SDS011;3316;44.118;27.258;2022-07-22T11:17:32;11.32;;;2.92;;
6564;SDS011;3316;44.118;27.258;2022-07-22T11:20:00;3.20;;;2.10;;
6564;SDS011;3316;44.118;27.258;2022-07-22T11:22:30;4.93;;;2.83;;
6564;SDS011;3316;44.118;27.258;2022-07-22T11:24:56;4.32;;;2.58;;
6564;SDS011;3316;44.118;27.258;2022-07-22T11:27:22;6.50;;;2.72;;
6564;SDS011;3316;44.118;27.258;2022-07-22T11:29:49;4.47;;;2.40;;
6564;SDS011;3316;44.118;27.258;2022-07-22T11:32:15;12.82;;;5.75;;
6564;SDS011;3316;44.118;27.258;2022-07-22T11:34:45;10.20;;;2.60;;
6564;SDS011;3316;44.118;27.258;2022-07-22T11:37:18;5.93;;;2.67;;
6564;SDS011;3316;44.118;27.258;2022-07-22T11:39:47;4.75;;;2.20;;
6564;SDS011;3316;44.118;27.258;2022-07-22T11:42:13;7.03;;;2.38;;
6564;SDS011;3316;44.118;27.258;2022-07-22T11:44:39;2.42;;;2.22;;
6564;SDS011;3316;44.118;27.258;2022-07-22T11:47:05;4.03;;;2.80;;
6564;SDS011;3316;44.118;27.258;2022-07-22T11:49:34;3.95;;;2.42;;
6564;SDS011;3316;44.118;27.258;2022-07-22T11:52:05;6.97;;;2.55;;
6564;SDS011;3316;44.118;27.258;2022-07-22T11:54:34;4.25;;;2.08;;
6564;SDS011;3316;44.118;27.258;2022-07-22T11:57:01;4.07;;;2.45;;
6564;SDS011;3316;44.118;27.258;2022-07-22T11:59:27;4.47;;;2.08;;
6564;SDS011;3316;44.118;27.258;2022-07-22T12:01:52;5.80;;;2.80;;
6564;SDS011;3316;44.118;27.258;2022-07-22T12:04:24;4.07;;;2.55;;
6564;SDS011;3316;44.118;27.258;2022-07-22T12:06:51;5.32;;;2.50;;
6564;SDS011;3316;44.118;27.258;2022-07-22T12:11:47;3.47;;;2.38;;
6564;SDS011;3316;44.118;27.258;2022-07-22T12:14:17;2.85;;;2.20;;
6564;SDS011;3316;44.118;27.258;2022-07-22T12:17:02;2.70;;;2.13;;
6564;SDS011;3316;44.118;27.258;2022-07-22T12:19:36;13.23;;;5.95;;
6564;SDS011;3316;44.118;27.258;2022-07-22T12:22:07;8.30;;;2.60;;
6564;SDS011;3316;44.118;27.258;2022-07-22T12:24:42;4.63;;;2.38;;
6564;SDS011;3316;44.118;27.258;2022-07-22T12:27:16;5.88;;;2.53;;
6564;SDS011;3316;44.118;27.258;2022-07-22T12:29:43;7.38;;;5.53;;
6564;SDS011;3316;44.118;27.258;2022-07-22T12:32:11;3.95;;;2.63;;
6564;SDS011;3316;44.118;27.258;2022-07-22T12:34:42;2.53;;;2.10;;
6564;SDS011;3316;44.118;27.258;2022-07-22T12:37:14;3.60;;;2.30;;
6564;SDS011;3316;44.118;27.258;2022-07-22T12:42:34;6.78;;;2.78;;
6564;SDS011;3316;44.118;27.258;2022-07-22T12:45:11;4.07;;;2.50;;
6564;SDS011;3316;44.118;27.258;2022-07-22T12:52:51;8.02;;;2.67;;
6564;SDS011;3316;44.118;27.258;2022-07-22T12:55:17;4.95;;;2.47;;
6564;SDS011;3316;44.118;27.258;2022-07-22T12:57:43;4.43;;;2.45;;
6564;SDS011;3316;44.118;27.258;2022-07-22T13:00:09;3.67;;;2.50;;
6564;SDS011;3316;44.118;27.258;2022-07-22T13:02:36;5.88;;;2.63;;
6564;SDS011;3316;44.118;27.258;2022-07-22T13:05:02;6.07;;;3.10;;
6564;SDS011;3316;44.118;27.258;2022-07-22T13:07:28;5.32;;;2.28;;
6564;SDS011;3316;44.118;27.258;2022-07-22T13:09:53;6.95;;;2.88;;
6564;SDS011;3316;44.118;27.258;2022-07-22T13:12:19;10.77;;;3.80;;
6564;SDS011;3316;44.118;27.258;2022-07-22T13:14:44;7.68;;;2.75;;
6564;SDS011;3316;44.118;27.258;2022-07-22T13:17:09;3.50;;;2.60;;
6564;SDS011;3316;44.118;27.258;2022-07-22T13:19:37;4.40;;;2.80;;
6564;SDS011;3316;44.118;27.258;2022-07-22T13:22:02;5.72;;;2.50;;
6564;SDS011;3316;44.118;27.258;2022-07-22T13:24:28;7.03;;;2.50;;
6564;SDS011;3316;44.118;27.258;2022-07-22T13:26:53;6.00;;;2.78;;
6564;SDS011;3316;44.118;27.258;2022-07-22T13:29:19;6.57;;;2.60;;
6564;SDS011;3316;44.118;27.258;2022-07-22T13:31:44;5.28;;;2.67;;
6564;SDS011;3316;44.118;27.258;2022-07-22T13:34:10;4.50;;;2.63;;
6564;SDS011;3316;44.118;27.258;2022-07-22T13:36:35;4.68;;;2.70;;
6564;SDS011;3316;44.118;27.258;2022-07-22T13:39:00;4.28;;;2.40;;
6564;SDS011;3316;44.118;27.258;2022-07-22T13:41:27;5.65;;;2.60;;
6564;SDS011;3316;44.118;27.258;2022-07-22T13:43:53;4.93;;;2.90;;
6564;SDS011;3316;44.118;27.258;2022-07-22T13:46:18;10.45;;;3.95;;
6564;SDS011;3316;44.118;27.258;2022-07-22T13:48:44;19.05;;;8.07;;
6564;SDS011;3316;44.118;27.258;2022-07-22T13:51:10;11.20;;;5.28;;
6564;SDS011;3316;44.118;27.258;2022-07-22T13:53:36;3.50;;;2.17;;
6564;SDS011;3316;44.118;27.258;2022-07-22T13:56:01;13.60;;;4.10;;
6564;SDS011;3316;44.118;27.258;2022-07-22T13:58:28;8.32;;;2.92;;
6564;SDS011;3316;44.118;27.258;2022-07-22T14:00:55;8.02;;;2.65;;
6564;SDS011;3316;44.118;27.258;2022-07-22T14:03:21;7.45;;;2.72;;
6564;SDS011;3316;44.118;27.258;2022-07-22T14:05:47;6.03;;;2.40;;
6564;SDS011;3316;44.118;27.258;2022-07-22T14:08:12;9.52;;;3.00;;
6564;SDS011;3316;44.118;27.258;2022-07-22T14:10:38;6.10;;;3.35;;
6564;SDS011;3316;44.118;27.258;2022-07-22T14:13:03;7.10;;;3.10;;
6564;SDS011;3316;44.118;27.258;2022-07-22T14:15:31;8.23;;;3.13;;
6564;SDS011;3316;44.118;27.258;2022-07-22T14:17:57;6.82;;;3.15;;
6564;SDS011;3316;44.118;27.258;2022-07-22T14:20:23;5.15;;;3.08;;
6564;SDS011;3316;44.118;27.258;2022-07-22T14:22:48;6.15;;;2.60;;
6564;SDS011;3316;44.118;27.258;2022-07-22T14:25:13;8.57;;;3.15;;
6564;SDS011;3316;44.118;27.258;2022-07-22T14:27:39;7.55;;;3.75;;
6564;SDS011;3316;44.118;27.258;2022-07-22T14:30:05;14.25;;;7.32;;
6564;SDS011;3316;44.118;27.258;2022-07-22T14:32:31;8.25;;;2.88;;
6564;SDS011;3316;44.118;27.258;2022-07-22T14:34:56;24.80;;;11.32;;
6564;SDS011;3316;44.118;27.258;2022-07-22T14:37:22;4.93;;;2.28;;
6564;SDS011;3316;44.118;27.258;2022-07-22T14:39:48;7.35;;;2.97;;
6564;SDS011;3316;44.118;27.258;2022-07-22T14:42:22;71.39;;;29.57;;
6564;SDS011;3316;44.118;27.258;2022-07-22T14:44:48;7.88;;;3.97;;
6564;SDS011;3316;44.118;27.258;2022-07-22T14:47:13;59.03;;;23.88;;
6564;SDS011;3316;44.118;27.258;2022-07-22T14:49:38;25.52;;;12.82;;
6564;SDS011;3316;44.118;27.258;2022-07-22T14:52:04;14.00;;;4.72;;
6564;SDS011;3316;44.118;27.258;2022-07-22T14:54:29;8.68;;;3.45;;
6564;SDS011;3316;44.118;27.258;2022-07-22T14:56:55;5.18;;;2.55;;
6564;SDS011;3316;44.118;27.258;2022-07-22T14:59:21;9.23;;;2.97;;
6564;SDS011;3316;44.118;27.258;2022-07-22T15:01:50;4.43;;;2.83;;
6564;SDS011;3316;44.118;27.258;2022-07-22T15:04:18;3.38;;;2.47;;
6564;SDS011;3316;44.118;27.258;2022-07-22T15:06:44;5.82;;;2.75;;
6564;SDS011;3316;44.118;27.258;2022-07-22T15:09:10;8.45;;;3.00;;